首页
METAR-TAF:

METAR-TAF

机场 :

三亚凤凰国际机场

三亚, 中华人民共和国

纬度: 18-18N, 经度: 109-24E, 海拔: 27米

当前天气观测

该预报发布于21分钟前的05:00 UTC
风速16节,风向
温度 29°C
湿度 66%
气压 1012 hPa
能见度10公里或以上
散云层高于2000英尺
少量云层高于2800英尺, 积雨云.
散云层高于4000英尺

METAR: ZJSY 140500Z 09008MPS 9999 SCT020 FEW028CB SCT040 29/22 Q1012 NOSIG

时间: 13:21 (05:21 UTC)

预报

该预报发布于10小时和19分钟前的19:02 UTC
预报有效从14日的 00点(UTC)到 14日的 24点(UTC)
风速8节,风向
能见度10公里或以上
少量云层高于2000英尺
散云层高于5000英尺

TAF: ZJSY 131902Z 1400/1424 09004MPS 9999 FEW020 SCT050 TX32/1406Z TN23/1421Z

超过4000个机场的气象观测和天气预报(METAR&TAF报告)。

可查询的气象台以黄色和红色小点在地图上表示。

将鼠标移到小点上方,可查看气象台名称。

然后点击查看天气观测和预报。

如需切换地图:点击带黑十字的绿色按钮放大地图;点击带横线的绿色按钮缩小地图;或者点击绿色箭头查看邻近地区的地图。


METAR-TAF: